createdAt,value
2023-03-04T00:00:46.343Z,22.70
2023-03-04T00:04:20.819Z,19.90
2023-03-04T00:07:48.187Z,19.40
2023-03-04T00:11:15.363Z,22.00
2023-03-04T00:14:42.664Z,21.50
2023-03-04T00:18:10.072Z,19.20
2023-03-04T00:21:37.236Z,20.30
2023-03-04T00:25:04.529Z,20.00
2023-03-04T00:28:31.665Z,20.60
2023-03-04T00:31:58.908Z,21.60
2023-03-04T00:35:26.582Z,20.40
2023-03-04T00:38:54.356Z,23.90
2023-03-04T00:42:21.578Z,20.50
2023-03-04T00:45:48.877Z,20.90
2023-03-04T00:49:16.148Z,20.90
2023-03-04T00:52:43.477Z,21.60
2023-03-04T00:56:11.121Z,20.00
2023-03-04T00:59:38.239Z,21.50
2023-03-04T01:03:05.473Z,23.20
2023-03-04T01:06:32.857Z,21.30
2023-03-04T01:10:00.044Z,23.10
2023-03-04T01:13:27.324Z,23.00
2023-03-04T01:16:54.694Z,20.60
2023-03-04T01:20:22.635Z,21.90
2023-03-04T01:23:49.787Z,21.00
2023-03-04T01:27:16.972Z,22.00
2023-03-04T01:30:44.299Z,22.10
2023-03-04T01:34:11.442Z,22.40
2023-03-04T01:37:38.581Z,22.90
2023-03-04T01:41:07.700Z,21.20
2023-03-04T01:44:35.033Z,22.20
2023-03-04T01:48:02.229Z,20.90
2023-03-04T01:51:29.398Z,19.00
2023-03-04T01:54:56.824Z,21.50
2023-03-04T01:58:32.314Z,20.50
2023-03-04T02:02:01.412Z,21.40
2023-03-04T02:05:31.349Z,19.90
2023-03-04T02:08:58.789Z,16.60
2023-03-04T02:12:26.022Z,24.00
2023-03-04T02:15:53.313Z,23.50
2023-03-04T02:19:34.043Z,22.30
2023-03-04T02:23:08.790Z,23.40
2023-03-04T02:26:37.240Z,22.80
2023-03-04T02:30:04.822Z,19.90
2023-03-04T02:33:33.212Z,21.70
2023-03-04T02:37:00.945Z,18.90
2023-03-04T02:40:32.619Z,19.80
2023-03-04T02:43:59.986Z,20.50
2023-03-04T02:47:27.829Z,20.90
2023-03-04T02:50:56.530Z,19.10
2023-03-04T02:54:25.331Z,19.40
2023-03-04T02:57:52.387Z,19.80
2023-03-04T03:01:19.541Z,20.20
2023-03-04T03:04:46.972Z,18.50
2023-03-04T03:08:16.076Z,17.90
2023-03-04T03:11:43.517Z,19.00
2023-03-04T03:15:12.928Z,18.50
2023-03-04T03:18:41.507Z,17.80
2023-03-04T03:22:09.261Z,18.40
2023-03-04T03:25:36.455Z,18.10
2023-03-04T03:29:03.554Z,17.90
2023-03-04T03:32:30.828Z,19.80
2023-03-04T03:35:58.406Z,18.00
2023-03-04T03:39:25.715Z,17.40
2023-03-04T03:42:52.861Z,16.20
2023-03-04T03:46:19.971Z,16.80
2023-03-04T03:49:47.284Z,17.40
2023-03-04T03:53:14.441Z,17.90
2023-03-04T03:56:41.733Z,17.10
2023-03-04T04:00:11.201Z,16.60
2023-03-04T04:03:41.172Z,17.00
2023-03-04T04:07:08.326Z,15.40
2023-03-04T04:10:35.401Z,17.50
2023-03-04T04:14:02.600Z,16.40
2023-03-04T04:17:29.874Z,17.00
2023-03-04T04:20:57.079Z,14.20
2023-03-04T04:24:24.862Z,14.80
2023-03-04T04:27:51.967Z,14.30
2023-03-04T04:31:19.188Z,14.60
2023-03-04T04:34:46.432Z,14.60
2023-03-04T04:38:13.677Z,15.20
2023-03-04T04:41:43.122Z,13.60
2023-03-04T04:45:12.718Z,15.00
2023-03-04T04:52:05.494Z,12.70
2023-03-04T04:55:33.359Z,13.10
2023-03-04T04:59:02.794Z,11.90
2023-03-04T05:02:29.987Z,14.10
2023-03-04T05:05:57.202Z,13.00
2023-03-04T05:09:24.572Z,13.80
2023-03-04T05:12:51.731Z,11.90
2023-03-04T05:16:19.533Z,12.40
2023-03-04T05:19:46.868Z,12.70
2023-03-04T05:23:14.012Z,12.40
2023-03-04T05:26:41.111Z,12.90
2023-03-04T05:30:10.488Z,11.10
2023-03-04T05:33:37.867Z,12.50
2023-03-04T05:37:05.140Z,11.20
2023-03-04T05:40:32.288Z,12.20
2023-03-04T05:43:59.649Z,12.50
2023-03-04T05:47:26.745Z,11.10
2023-03-04T05:50:58.127Z,10.90
2023-03-04T05:54:25.393Z,11.10
2023-03-04T05:57:52.686Z,14.20
2023-03-04T06:01:20.294Z,11.50
2023-03-04T06:04:47.488Z,11.80
2023-03-04T06:08:15.288Z,10.50
2023-03-04T06:11:42.950Z,11.10
2023-03-04T06:15:11.630Z,11.60
2023-03-04T06:18:39.335Z,11.90
2023-03-04T06:22:06.467Z,11.70
2023-03-04T06:25:34.638Z,11.30
2023-03-04T06:29:01.747Z,10.80
2023-03-04T06:32:29.095Z,10.70
2023-03-04T06:35:58.610Z,11.30
2023-03-04T06:39:25.891Z,11.90
2023-03-04T06:42:52.966Z,10.90
2023-03-04T06:46:20.046Z,11.10
2023-03-04T06:49:47.293Z,11.10
2023-03-04T06:53:14.348Z,11.80
2023-03-04T06:56:41.613Z,9.70
2023-03-04T07:00:10.747Z,11.00
2023-03-04T07:03:38.167Z,11.00
2023-03-04T07:07:05.283Z,10.70
2023-03-04T07:10:32.380Z,10.80
2023-03-04T07:13:59.464Z,10.00
2023-03-04T07:17:26.914Z,9.60
2023-03-04T07:20:56.423Z,11.20
2023-03-04T07:24:23.986Z,10.70
2023-03-04T07:27:51.022Z,11.20
2023-03-04T07:31:24.804Z,10.00
2023-03-04T07:34:52.334Z,10.40
2023-03-04T07:38:19.325Z,10.90
2023-03-04T07:41:46.550Z,10.80
2023-03-04T07:45:14.771Z,11.60
2023-03-04T07:48:42.144Z,11.10
2023-03-04T07:52:09.651Z,11.50
2023-03-04T07:55:36.716Z,10.50
2023-03-04T07:59:04.375Z,13.50
2023-03-04T08:02:31.480Z,33.20
2023-03-04T08:05:58.534Z,46.20
2023-03-04T08:09:26.218Z,28.90
2023-03-04T08:12:53.331Z,23.70
2023-03-04T08:16:23.056Z,59.60
2023-03-04T08:23:15.613Z,48.30
2023-03-04T08:26:45.340Z,28.70
2023-03-04T08:33:39.360Z,11.80
2023-03-04T08:37:07.249Z,11.80
2023-03-04T08:40:34.673Z,11.20
2023-03-04T08:44:03.053Z,10.70
2023-03-04T08:47:30.117Z,12.30
2023-03-04T08:50:57.622Z,12.70
2023-03-04T08:54:24.824Z,12.20
2023-03-04T08:57:51.985Z,71.40
2023-03-04T09:01:19.348Z,17.20
2023-03-04T09:04:46.880Z,14.40
2023-03-04T09:08:14.352Z,11.90
2023-03-04T09:11:41.389Z,11.70
2023-03-04T09:15:11.980Z,11.90
2023-03-04T09:18:40.143Z,13.10
2023-03-04T09:22:07.227Z,12.00
2023-03-04T09:25:34.560Z,11.00
2023-03-04T09:29:03.161Z,11.50
2023-03-04T09:32:30.484Z,10.70
2023-03-04T09:35:59.102Z,12.30
2023-03-04T09:39:26.574Z,22.70
2023-03-04T09:42:58.189Z,20.40
2023-03-04T09:46:35.188Z,19.50
2023-03-04T09:50:04.835Z,15.10
2023-03-04T09:53:41.473Z,14.30
2023-03-04T09:57:28.059Z,12.80
2023-03-04T10:01:05.138Z,9.90
2023-03-04T10:04:42.190Z,10.30
2023-03-04T10:08:25.525Z,8.10
2023-03-04T10:12:01.687Z,6.10
2023-03-04T10:15:36.951Z,5.40
2023-03-04T10:19:17.321Z,5.10
2023-03-04T10:22:47.530Z,4.50
2023-03-04T10:26:16.689Z,4.60
2023-03-04T10:29:43.950Z,4.30
2023-03-04T10:33:16.781Z,4.60
2023-03-04T10:36:54.694Z,3.90
2023-03-04T10:40:25.472Z,3.90
2023-03-04T10:44:05.061Z,4.20
2023-03-04T10:47:35.308Z,4.00
2023-03-04T10:51:20.152Z,3.60
2023-03-04T10:54:53.662Z,3.00
2023-03-04T10:58:22.237Z,3.30
2023-03-04T11:01:51.279Z,3.00
2023-03-04T11:05:22.741Z,3.80
2023-03-04T11:08:56.871Z,3.60
2023-03-04T11:12:33.992Z,3.00
2023-03-04T11:16:03.729Z,3.50
2023-03-04T11:19:39.610Z,4.50
2023-03-04T11:23:11.606Z,3.90
2023-03-04T11:26:44.290Z,4.40
2023-03-04T11:30:37.820Z,4.60
2023-03-04T11:34:13.721Z,15.00
2023-03-04T11:37:45.323Z,5.60
2023-03-04T11:41:19.254Z,6.60
2023-03-04T11:44:46.528Z,5.10
2023-03-04T11:48:18.192Z,4.50
2023-03-04T11:51:52.417Z,6.60
2023-03-04T11:55:39.155Z,5.60
2023-03-04T11:59:23.481Z,18.50
2023-03-04T12:03:04.128Z,40.30
2023-03-04T12:06:44.097Z,19.30
2023-03-04T12:10:23.723Z,19.40
2023-03-04T12:14:09.465Z,20.90
2023-03-04T12:17:53.398Z,42.20
2023-03-04T12:21:42.585Z,71.60
2023-03-04T12:25:25.318Z,95.70
2023-03-04T12:28:58.587Z,104.60
2023-03-04T12:32:34.530Z,73.70
2023-03-04T12:36:13.581Z,56.90
2023-03-04T12:39:47.027Z,40.30
2023-03-04T12:43:33.935Z,15.00
2023-03-04T12:47:14.948Z,7.80
2023-03-04T12:50:52.933Z,5.50
2023-03-04T12:54:32.156Z,5.80
2023-03-04T12:58:00.172Z,6.60
2023-03-04T13:01:32.818Z,5.50
2023-03-04T13:05:15.368Z,7.10
2023-03-04T13:08:54.919Z,6.60
2023-03-04T13:12:23.668Z,7.10
2023-03-04T13:16:05.764Z,7.50
2023-03-04T13:19:52.553Z,3.40
2023-03-04T13:23:31.952Z,3.50
2023-03-04T13:26:59.255Z,2.60
2023-03-04T13:31:06.908Z,2.80
2023-03-04T13:34:53.996Z,3.10
2023-03-04T13:38:34.685Z,3.30
2023-03-04T13:42:02.971Z,3.90
2023-03-04T13:45:40.555Z,3.20
2023-03-04T13:49:10.081Z,3.30
2023-03-04T13:52:44.724Z,3.30
2023-03-04T13:56:30.048Z,2.00
2023-03-04T13:59:58.654Z,2.40
2023-03-04T14:03:29.125Z,3.20
2023-03-04T14:06:58.875Z,2.90
2023-03-04T14:10:26.896Z,3.20
2023-03-04T14:13:55.024Z,1.80
2023-03-04T14:17:25.419Z,3.30
2023-03-04T14:20:58.983Z,5.30
2023-03-04T14:24:26.666Z,4.90
2023-03-04T14:28:05.823Z,4.70
2023-03-04T14:31:37.325Z,3.60
2023-03-04T14:35:08.455Z,4.30
2023-03-04T14:38:38.984Z,3.10
2023-03-04T14:42:12.108Z,2.90
2023-03-04T14:45:40.681Z,6.40
2023-03-04T14:49:07.879Z,2.90
2023-03-04T14:52:38.644Z,2.70
2023-03-04T14:56:07.904Z,3.20
2023-03-04T14:59:37.024Z,3.70
2023-03-04T15:03:09.579Z,3.30
2023-03-04T15:06:39.157Z,3.20
2023-03-04T15:10:09.438Z,2.70
2023-03-04T15:13:45.198Z,2.50
2023-03-04T15:17:26.960Z,4.10
2023-03-04T15:21:03.061Z,3.40
2023-03-04T15:24:30.194Z,7.60
2023-03-04T15:27:58.044Z,5.70
2023-03-04T15:31:27.026Z,3.60
2023-03-04T15:34:54.277Z,6.20
2023-03-04T15:38:22.611Z,9.30
2023-03-04T15:41:50.712Z,9.70
2023-03-04T15:45:24.529Z,5.30
2023-03-04T15:48:51.656Z,8.00
2023-03-04T15:52:21.346Z,4.70
2023-03-04T15:55:50.442Z,6.10
2023-03-04T15:59:19.465Z,6.80
2023-03-04T16:02:47.483Z,7.90
2023-03-04T16:06:18.713Z,10.20
2023-03-04T16:09:46.322Z,14.70
2023-03-04T16:13:18.106Z,7.40
2023-03-04T16:16:46.947Z,5.30
2023-03-04T16:20:17.192Z,3.80
2023-03-04T16:23:46.885Z,5.10
2023-03-04T16:30:41.669Z,2.80
2023-03-04T16:34:09.020Z,3.40
2023-03-04T16:37:36.301Z,5.00
2023-03-04T16:41:03.502Z,5.10
2023-03-04T16:44:30.760Z,6.10
2023-03-04T16:47:57.883Z,6.00
2023-03-04T16:51:26.096Z,6.20
2023-03-04T16:54:53.573Z,5.80
2023-03-04T16:58:20.746Z,6.40
2023-03-04T17:01:48.579Z,5.70
2023-03-04T17:05:21.169Z,5.70
2023-03-04T17:08:48.743Z,6.80
2023-03-04T17:12:15.935Z,8.20
2023-03-04T17:15:45.392Z,7.40
2023-03-04T17:22:38.413Z,6.20
2023-03-04T17:26:06.218Z,6.90
2023-03-04T17:29:33.445Z,6.50
2023-03-04T17:33:01.162Z,7.00
2023-03-04T17:36:28.455Z,5.50
2023-03-04T17:39:55.706Z,6.30
2023-03-04T17:43:23.073Z,7.50
2023-03-04T17:46:51.975Z,9.60
2023-03-04T17:50:22.805Z,10.70
2023-03-04T17:53:49.942Z,15.60
2023-03-04T17:57:17.151Z,17.20
2023-03-04T18:00:44.560Z,15.60
2023-03-04T18:04:12.154Z,14.50
2023-03-04T18:07:39.370Z,16.10
2023-03-04T18:11:07.026Z,12.50
2023-03-04T18:14:34.179Z,12.70
2023-03-04T18:18:01.616Z,7.40
2023-03-04T18:21:30.489Z,6.50
2023-03-04T18:24:57.645Z,6.60
2023-03-04T18:28:26.104Z,14.20
2023-03-04T18:31:53.382Z,6.60
2023-03-04T18:35:21.768Z,13.10
2023-03-04T18:38:49.157Z,14.20
2023-03-04T18:42:16.362Z,17.60
2023-03-04T18:45:43.421Z,11.10
2023-03-04T18:49:11.549Z,11.60
2023-03-04T18:52:38.890Z,12.40
2023-03-04T18:56:12.475Z,12.10
2023-03-04T18:59:44.111Z,14.20
2023-03-04T19:03:14.141Z,12.50
2023-03-04T19:06:41.688Z,13.80
2023-03-04T19:10:10.624Z,15.10
2023-03-04T19:13:37.965Z,14.30
2023-03-04T19:17:05.288Z,22.60
2023-03-04T19:20:32.714Z,29.90
2023-03-04T19:23:59.867Z,28.30
2023-03-04T19:27:27.380Z,40.80
2023-03-04T19:30:59.005Z,64.40
2023-03-04T19:34:26.432Z,83.60
2023-03-04T19:37:53.589Z,53.70
2023-03-04T19:41:20.955Z,26.20
2023-03-04T19:44:48.602Z,17.30
2023-03-04T19:48:15.979Z,13.60
2023-03-04T19:51:43.032Z,11.60
2023-03-04T19:55:12.947Z,10.90
2023-03-04T19:58:40.120Z,10.90
2023-03-04T20:02:07.271Z,11.60
2023-03-04T20:05:34.859Z,11.90
2023-03-04T20:09:02.829Z,11.80
2023-03-04T20:12:31.417Z,11.10
2023-03-04T20:15:58.507Z,11.00
2023-03-04T20:19:26.087Z,9.50
2023-03-04T20:22:53.295Z,10.30
2023-03-04T20:26:20.633Z,10.60
2023-03-04T20:29:51.093Z,12.60
2023-03-04T20:33:19.178Z,13.00
2023-03-04T20:36:46.268Z,14.30
2023-03-04T20:40:16.197Z,12.90
2023-03-04T20:43:43.603Z,13.20
2023-03-04T20:47:11.379Z,12.70
2023-03-04T20:50:39.017Z,15.50
2023-03-04T20:54:07.320Z,15.70
2023-03-04T20:57:34.487Z,15.50
2023-03-04T21:01:01.896Z,17.80
2023-03-04T21:04:31.361Z,17.10
2023-03-04T21:08:01.387Z,18.60
2023-03-04T21:11:28.682Z,17.00
2023-03-04T21:14:55.894Z,17.30
2023-03-04T21:18:23.166Z,17.00
2023-03-04T21:21:52.418Z,16.30
2023-03-04T21:25:23.225Z,15.60
2023-03-04T21:28:51.080Z,14.30
2023-03-04T21:32:25.230Z,13.30
2023-03-04T21:35:52.722Z,13.20
2023-03-04T21:39:23.294Z,13.50
2023-03-04T21:42:50.643Z,13.30
2023-03-04T21:46:19.160Z,18.20
2023-03-04T21:49:46.320Z,17.00
2023-03-04T21:53:13.474Z,19.60
2023-03-04T21:56:41.347Z,18.10
2023-03-04T22:00:10.634Z,17.20
2023-03-04T22:03:41.028Z,18.50
2023-03-04T22:07:08.286Z,18.80
2023-03-04T22:10:37.696Z,16.70
2023-03-04T22:14:05.855Z,17.20
2023-03-04T22:17:34.617Z,19.20
2023-03-04T22:21:07.461Z,17.10
2023-03-04T22:24:34.672Z,18.40
2023-03-04T22:28:02.161Z,20.70
2023-03-04T22:31:31.837Z,19.60
2023-03-04T22:34:59.043Z,16.90
2023-03-04T22:38:26.413Z,16.00
2023-03-04T22:41:53.661Z,14.40
2023-03-04T22:45:21.763Z,16.00
2023-03-04T22:48:52.827Z,14.40
2023-03-04T22:52:20.275Z,14.00
2023-03-04T22:55:47.549Z,13.90
2023-03-04T22:59:14.913Z,12.50
2023-03-04T23:02:42.191Z,11.80
2023-03-04T23:06:13.570Z,14.40
2023-03-04T23:09:40.918Z,18.40
2023-03-04T23:13:08.088Z,26.80
2023-03-04T23:16:37.476Z,34.00
2023-03-04T23:20:05.002Z,37.40
2023-03-04T23:23:32.034Z,30.80
2023-03-04T23:26:59.701Z,20.50
2023-03-04T23:30:27.001Z,14.20
2023-03-04T23:33:57.409Z,12.40
2023-03-04T23:37:25.352Z,11.80
2023-03-04T23:40:52.585Z,11.90
2023-03-04T23:44:19.868Z,9.70
2023-03-04T23:47:47.276Z,9.60
2023-03-04T23:51:15.441Z,10.70
2023-03-04T23:54:42.628Z,9.70
2023-03-04T23:58:09.822Z,11.00
